sensor_id;sensor_type;location;lat;lon;timestamp;P1;durP1;ratioP1;P2;durP2;ratioP2
72924;SDS011;61070;50.794;7.054;2023-03-20T00:03:52;43.20;;;24.23;;
72924;SDS011;61070;50.794;7.054;2023-03-20T00:06:18;48.78;;;24.52;;
72924;SDS011;61070;50.794;7.054;2023-03-20T00:08:46;49.63;;;25.27;;
72924;SDS011;61070;50.794;7.054;2023-03-20T00:11:32;50.50;;;26.33;;
72924;SDS011;61070;50.794;7.054;2023-03-20T00:16:28;50.67;;;25.52;;
72924;SDS011;61070;50.794;7.054;2023-03-20T00:18:56;54.50;;;26.08;;
72924;SDS011;61070;50.794;7.054;2023-03-20T00:21:21;53.67;;;26.25;;
72924;SDS011;61070;50.794;7.054;2023-03-20T00:23:47;54.40;;;26.33;;
72924;SDS011;61070;50.794;7.054;2023-03-20T00:26:13;50.30;;;26.15;;
72924;SDS011;61070;50.794;7.054;2023-03-20T00:28:41;50.28;;;26.40;;
72924;SDS011;61070;50.794;7.054;2023-03-20T00:31:13;46.55;;;25.65;;
72924;SDS011;61070;50.794;7.054;2023-03-20T00:33:49;49.08;;;25.33;;
72924;SDS011;61070;50.794;7.054;2023-03-20T00:36:15;48.13;;;25.25;;
72924;SDS011;61070;50.794;7.054;2023-03-20T00:38:40;51.08;;;25.55;;
72924;SDS011;61070;50.794;7.054;2023-03-20T00:44:06;45.75;;;24.80;;
72924;SDS011;61070;50.794;7.054;2023-03-20T00:46:58;51.75;;;25.52;;
72924;SDS011;61070;50.794;7.054;2023-03-20T00:49:27;54.05;;;25.67;;
72924;SDS011;61070;50.794;7.054;2023-03-20T00:51:58;49.05;;;25.73;;
72924;SDS011;61070;50.794;7.054;2023-03-20T00:54:25;47.58;;;24.80;;
72924;SDS011;61070;50.794;7.054;2023-03-20T00:59:30;49.90;;;24.48;;
72924;SDS011;61070;50.794;7.054;2023-03-20T01:02:00;52.17;;;26.73;;
72924;SDS011;61070;50.794;7.054;2023-03-20T01:04:27;49.85;;;26.08;;
72924;SDS011;61070;50.794;7.054;2023-03-20T01:06:59;48.60;;;24.88;;
72924;SDS011;61070;50.794;7.054;2023-03-20T01:09:24;49.50;;;25.58;;
72924;SDS011;61070;50.794;7.054;2023-03-20T01:11:50;47.33;;;24.88;;
72924;SDS011;61070;50.794;7.054;2023-03-20T01:14:15;45.65;;;24.35;;
72924;SDS011;61070;50.794;7.054;2023-03-20T01:16:41;45.10;;;23.98;;
72924;SDS011;61070;50.794;7.054;2023-03-20T01:19:10;50.40;;;25.73;;
72924;SDS011;61070;50.794;7.054;2023-03-20T01:21:37;49.13;;;24.00;;
72924;SDS011;61070;50.794;7.054;2023-03-20T01:24:02;45.65;;;23.23;;
72924;SDS011;61070;50.794;7.054;2023-03-20T01:26:30;50.83;;;25.15;;
72924;SDS011;61070;50.794;7.054;2023-03-20T01:28:59;43.00;;;23.67;;
72924;SDS011;61070;50.794;7.054;2023-03-20T01:31:24;43.83;;;23.42;;
72924;SDS011;61070;50.794;7.054;2023-03-20T01:33:49;45.42;;;23.50;;
72924;SDS011;61070;50.794;7.054;2023-03-20T01:36:16;48.63;;;24.60;;
72924;SDS011;61070;50.794;7.054;2023-03-20T01:38:45;45.80;;;23.30;;
72924;SDS011;61070;50.794;7.054;2023-03-20T01:41:14;46.92;;;23.85;;
72924;SDS011;61070;50.794;7.054;2023-03-20T01:43:42;42.38;;;24.23;;
72924;SDS011;61070;50.794;7.054;2023-03-20T01:51:18;44.38;;;23.60;;
72924;SDS011;61070;50.794;7.054;2023-03-20T01:54:07;41.80;;;22.50;;
72924;SDS011;61070;50.794;7.054;2023-03-20T01:56:38;48.85;;;22.88;;
72924;SDS011;61070;50.794;7.054;2023-03-20T01:59:24;42.75;;;22.63;;
72924;SDS011;61070;50.794;7.054;2023-03-20T02:01:50;45.47;;;23.58;;
72924;SDS011;61070;50.794;7.054;2023-03-20T02:04:16;44.63;;;23.33;;
72924;SDS011;61070;50.794;7.054;2023-03-20T02:06:45;41.40;;;22.92;;
72924;SDS011;61070;50.794;7.054;2023-03-20T02:09:10;41.58;;;22.70;;
72924;SDS011;61070;50.794;7.054;2023-03-20T02:11:36;44.05;;;22.50;;
72924;SDS011;61070;50.794;7.054;2023-03-20T02:14:03;45.80;;;22.98;;
72924;SDS011;61070;50.794;7.054;2023-03-20T02:16:29;44.28;;;22.40;;
72924;SDS011;61070;50.794;7.054;2023-03-20T02:18:55;40.90;;;21.77;;
72924;SDS011;61070;50.794;7.054;2023-03-20T02:24:23;47.42;;;23.23;;
72924;SDS011;61070;50.794;7.054;2023-03-20T02:27:23;37.60;;;21.60;;
72924;SDS011;61070;50.794;7.054;2023-03-20T02:36:03;41.00;;;21.77;;
72924;SDS011;61070;50.794;7.054;2023-03-20T02:39:01;41.38;;;20.77;;
72924;SDS011;61070;50.794;7.054;2023-03-20T02:44:23;40.58;;;19.83;;
72924;SDS011;61070;50.794;7.054;2023-03-20T02:47:04;35.55;;;20.35;;
72924;SDS011;61070;50.794;7.054;2023-03-20T02:54:59;36.28;;;17.65;;
72924;SDS011;61070;50.794;7.054;2023-03-20T02:58:21;33.80;;;18.17;;
72924;SDS011;61070;50.794;7.054;2023-03-20T03:03:27;31.92;;;16.50;;
72924;SDS011;61070;50.794;7.054;2023-03-20T03:06:01;31.83;;;17.27;;
72924;SDS011;61070;50.794;7.054;2023-03-20T03:08:34;32.83;;;15.88;;
72924;SDS011;61070;50.794;7.054;2023-03-20T03:11:04;33.20;;;16.88;;
72924;SDS011;61070;50.794;7.054;2023-03-20T03:13:32;33.65;;;16.58;;
72924;SDS011;61070;50.794;7.054;2023-03-20T03:16:04;32.03;;;16.02;;
72924;SDS011;61070;50.794;7.054;2023-03-20T03:18:34;29.05;;;16.23;;
72924;SDS011;61070;50.794;7.054;2023-03-20T03:21:02;38.40;;;15.10;;
72924;SDS011;61070;50.794;7.054;2023-03-20T03:23:31;39.20;;;17.02;;
72924;SDS011;61070;50.794;7.054;2023-03-20T03:26:01;28.92;;;14.90;;
72924;SDS011;61070;50.794;7.054;2023-03-20T03:28:32;31.48;;;15.55;;
72924;SDS011;61070;50.794;7.054;2023-03-20T03:31:04;33.90;;;16.85;;
72924;SDS011;61070;50.794;7.054;2023-03-20T03:33:33;31.27;;;14.82;;
72924;SDS011;61070;50.794;7.054;2023-03-20T03:36:05;39.28;;;16.38;;
72924;SDS011;61070;50.794;7.054;2023-03-20T03:38:44;25.05;;;14.65;;
72924;SDS011;61070;50.794;7.054;2023-03-20T03:44:07;29.35;;;16.02;;
72924;SDS011;61070;50.794;7.054;2023-03-20T03:49:22;31.98;;;17.33;;
72924;SDS011;61070;50.794;7.054;2023-03-20T03:51:54;34.95;;;16.50;;
72924;SDS011;61070;50.794;7.054;2023-03-20T03:54:26;35.25;;;15.98;;
72924;SDS011;61070;50.794;7.054;2023-03-20T03:56:56;30.63;;;15.98;;
72924;SDS011;61070;50.794;7.054;2023-03-20T03:59:29;34.70;;;16.35;;
72924;SDS011;61070;50.794;7.054;2023-03-20T04:01:59;31.15;;;17.25;;
72924;SDS011;61070;50.794;7.054;2023-03-20T04:04:27;29.25;;;15.90;;
72924;SDS011;61070;50.794;7.054;2023-03-20T04:06:55;31.08;;;16.13;;
72924;SDS011;61070;50.794;7.054;2023-03-20T04:09:20;31.60;;;16.60;;
72924;SDS011;61070;50.794;7.054;2023-03-20T04:11:46;37.15;;;16.52;;
72924;SDS011;61070;50.794;7.054;2023-03-20T04:14:14;33.88;;;15.77;;
72924;SDS011;61070;50.794;7.054;2023-03-20T04:16:40;35.10;;;16.40;;
72924;SDS011;61070;50.794;7.054;2023-03-20T04:19:06;35.17;;;16.38;;
72924;SDS011;61070;50.794;7.054;2023-03-20T04:21:31;36.30;;;17.27;;
72924;SDS011;61070;50.794;7.054;2023-03-20T04:23:56;35.05;;;16.48;;
72924;SDS011;61070;50.794;7.054;2023-03-20T04:26:22;38.35;;;16.83;;
72924;SDS011;61070;50.794;7.054;2023-03-20T04:28:47;36.72;;;17.88;;
72924;SDS011;61070;50.794;7.054;2023-03-20T04:31:12;36.20;;;16.92;;
72924;SDS011;61070;50.794;7.054;2023-03-20T04:33:38;41.95;;;18.30;;
72924;SDS011;61070;50.794;7.054;2023-03-20T04:36:03;34.60;;;16.55;;
72924;SDS011;61070;50.794;7.054;2023-03-20T04:38:30;34.25;;;17.50;;
72924;SDS011;61070;50.794;7.054;2023-03-20T04:40:55;32.50;;;17.38;;
72924;SDS011;61070;50.794;7.054;2023-03-20T04:43:20;36.75;;;17.63;;
72924;SDS011;61070;50.794;7.054;2023-03-20T04:45:46;42.00;;;18.13;;
72924;SDS011;61070;50.794;7.054;2023-03-20T04:48:11;39.15;;;18.17;;
72924;SDS011;61070;50.794;7.054;2023-03-20T04:50:36;36.50;;;17.75;;
72924;SDS011;61070;50.794;7.054;2023-03-20T04:53:02;39.38;;;18.65;;
72924;SDS011;61070;50.794;7.054;2023-03-20T04:55:27;36.80;;;16.98;;
72924;SDS011;61070;50.794;7.054;2023-03-20T04:57:52;36.67;;;17.40;;
72924;SDS011;61070;50.794;7.054;2023-03-20T05:00:18;35.75;;;17.77;;
72924;SDS011;61070;50.794;7.054;2023-03-20T05:02:43;35.55;;;17.75;;
72924;SDS011;61070;50.794;7.054;2023-03-20T05:05:09;29.60;;;16.63;;
72924;SDS011;61070;50.794;7.054;2023-03-20T05:07:34;35.40;;;17.45;;
72924;SDS011;61070;50.794;7.054;2023-03-20T05:10:00;38.08;;;16.25;;
72924;SDS011;61070;50.794;7.054;2023-03-20T05:12:26;39.78;;;16.83;;
72924;SDS011;61070;50.794;7.054;2023-03-20T05:14:51;30.73;;;15.80;;
72924;SDS011;61070;50.794;7.054;2023-03-20T05:17:18;34.85;;;18.02;;
72924;SDS011;61070;50.794;7.054;2023-03-20T05:19:44;33.45;;;18.30;;
72924;SDS011;61070;50.794;7.054;2023-03-20T05:22:10;33.45;;;16.88;;
72924;SDS011;61070;50.794;7.054;2023-03-20T05:24:35;33.17;;;17.25;;
72924;SDS011;61070;50.794;7.054;2023-03-20T05:27:01;31.55;;;16.73;;
72924;SDS011;61070;50.794;7.054;2023-03-20T05:29:26;32.28;;;16.10;;
72924;SDS011;61070;50.794;7.054;2023-03-20T05:31:51;29.02;;;15.68;;
72924;SDS011;61070;50.794;7.054;2023-03-20T05:34:17;33.00;;;16.75;;
72924;SDS011;61070;50.794;7.054;2023-03-20T05:36:43;29.75;;;16.20;;
72924;SDS011;61070;50.794;7.054;2023-03-20T05:39:08;32.78;;;17.10;;
72924;SDS011;61070;50.794;7.054;2023-03-20T05:41:33;37.53;;;17.05;;
72924;SDS011;61070;50.794;7.054;2023-03-20T05:43:58;35.85;;;17.20;;
72924;SDS011;61070;50.794;7.054;2023-03-20T05:46:24;37.13;;;17.20;;
72924;SDS011;61070;50.794;7.054;2023-03-20T05:48:50;31.02;;;16.13;;
72924;SDS011;61070;50.794;7.054;2023-03-20T05:51:15;43.60;;;17.98;;
72924;SDS011;61070;50.794;7.054;2023-03-20T05:53:41;33.20;;;16.08;;
72924;SDS011;61070;50.794;7.054;2023-03-20T05:56:06;41.03;;;17.83;;
72924;SDS011;61070;50.794;7.054;2023-03-20T05:58:32;34.50;;;15.75;;
72924;SDS011;61070;50.794;7.054;2023-03-20T06:00:57;36.53;;;16.38;;
72924;SDS011;61070;50.794;7.054;2023-03-20T06:03:22;34.35;;;16.80;;
72924;SDS011;61070;50.794;7.054;2023-03-20T06:05:48;30.08;;;16.35;;
72924;SDS011;61070;50.794;7.054;2023-03-20T06:08:13;35.38;;;16.77;;
72924;SDS011;61070;50.794;7.054;2023-03-20T06:10:39;31.75;;;16.52;;
72924;SDS011;61070;50.794;7.054;2023-03-20T06:13:05;35.28;;;15.82;;
72924;SDS011;61070;50.794;7.054;2023-03-20T06:15:32;33.00;;;16.73;;
72924;SDS011;61070;50.794;7.054;2023-03-20T06:17:57;33.35;;;16.40;;
72924;SDS011;61070;50.794;7.054;2023-03-20T06:20:23;31.90;;;16.10;;
72924;SDS011;61070;50.794;7.054;2023-03-20T06:22:49;32.67;;;15.98;;
72924;SDS011;61070;50.794;7.054;2023-03-20T06:25:15;33.47;;;15.98;;
72924;SDS011;61070;50.794;7.054;2023-03-20T06:27:41;36.60;;;15.80;;
72924;SDS011;61070;50.794;7.054;2023-03-20T06:30:07;37.20;;;16.13;;
72924;SDS011;61070;50.794;7.054;2023-03-20T06:32:33;35.67;;;17.35;;
72924;SDS011;61070;50.794;7.054;2023-03-20T06:34:58;28.73;;;15.15;;
72924;SDS011;61070;50.794;7.054;2023-03-20T06:37:23;36.38;;;17.27;;
72924;SDS011;61070;50.794;7.054;2023-03-20T06:39:49;28.88;;;15.05;;
72924;SDS011;61070;50.794;7.054;2023-03-20T06:42:14;31.55;;;16.75;;
72924;SDS011;61070;50.794;7.054;2023-03-20T06:44:40;30.45;;;15.48;;
72924;SDS011;61070;50.794;7.054;2023-03-20T06:47:06;32.08;;;15.70;;
72924;SDS011;61070;50.794;7.054;2023-03-20T06:49:31;33.65;;;15.88;;
72924;SDS011;61070;50.794;7.054;2023-03-20T06:51:57;33.67;;;16.27;;
72924;SDS011;61070;50.794;7.054;2023-03-20T06:54:23;35.63;;;14.45;;
72924;SDS011;61070;50.794;7.054;2023-03-20T06:56:49;31.85;;;16.30;;
72924;SDS011;61070;50.794;7.054;2023-03-20T06:59:14;32.60;;;16.23;;
72924;SDS011;61070;50.794;7.054;2023-03-20T07:01:39;32.33;;;15.18;;
72924;SDS011;61070;50.794;7.054;2023-03-20T07:04:05;26.77;;;14.95;;
72924;SDS011;61070;50.794;7.054;2023-03-20T07:06:30;28.40;;;14.25;;
72924;SDS011;61070;50.794;7.054;2023-03-20T07:08:56;30.83;;;15.57;;
72924;SDS011;61070;50.794;7.054;2023-03-20T07:11:21;28.88;;;14.50;;
72924;SDS011;61070;50.794;7.054;2023-03-20T07:13:48;28.73;;;16.48;;
72924;SDS011;61070;50.794;7.054;2023-03-20T07:16:14;29.48;;;15.82;;
72924;SDS011;61070;50.794;7.054;2023-03-20T07:18:40;34.17;;;17.13;;
72924;SDS011;61070;50.794;7.054;2023-03-20T07:21:05;29.88;;;14.57;;
72924;SDS011;61070;50.794;7.054;2023-03-20T07:23:32;32.30;;;15.90;;
72924;SDS011;61070;50.794;7.054;2023-03-20T07:25:58;27.35;;;14.15;;
72924;SDS011;61070;50.794;7.054;2023-03-20T07:28:23;26.90;;;14.68;;
72924;SDS011;61070;50.794;7.054;2023-03-20T07:30:49;31.17;;;14.02;;
72924;SDS011;61070;50.794;7.054;2023-03-20T07:33:14;31.83;;;15.35;;
72924;SDS011;61070;50.794;7.054;2023-03-20T07:35:40;25.63;;;14.50;;
72924;SDS011;61070;50.794;7.054;2023-03-20T07:38:05;28.35;;;15.60;;
72924;SDS011;61070;50.794;7.054;2023-03-20T07:40:31;27.75;;;14.70;;
72924;SDS011;61070;50.794;7.054;2023-03-20T07:42:57;26.05;;;12.95;;
72924;SDS011;61070;50.794;7.054;2023-03-20T07:45:22;25.25;;;13.00;;
72924;SDS011;61070;50.794;7.054;2023-03-20T07:47:48;25.20;;;12.70;;
72924;SDS011;61070;50.794;7.054;2023-03-20T07:50:13;24.77;;;13.50;;
72924;SDS011;61070;50.794;7.054;2023-03-20T07:52:39;21.15;;;12.35;;
72924;SDS011;61070;50.794;7.054;2023-03-20T07:55:05;21.40;;;12.35;;
72924;SDS011;61070;50.794;7.054;2023-03-20T07:57:31;28.35;;;11.90;;
72924;SDS011;61070;50.794;7.054;2023-03-20T07:59:58;28.15;;;12.18;;
72924;SDS011;61070;50.794;7.054;2023-03-20T08:02:23;18.33;;;10.25;;
72924;SDS011;61070;50.794;7.054;2023-03-20T08:04:49;23.58;;;11.82;;
72924;SDS011;61070;50.794;7.054;2023-03-20T08:07:14;19.15;;;10.13;;
72924;SDS011;61070;50.794;7.054;2023-03-20T08:09:40;16.00;;;9.98;;
72924;SDS011;61070;50.794;7.054;2023-03-20T08:12:05;21.98;;;10.18;;
72924;SDS011;61070;50.794;7.054;2023-03-20T08:14:30;23.35;;;11.90;;
72924;SDS011;61070;50.794;7.054;2023-03-20T08:16:56;14.55;;;9.05;;
72924;SDS011;61070;50.794;7.054;2023-03-20T08:19:21;17.48;;;9.40;;
72924;SDS011;61070;50.794;7.054;2023-03-20T08:21:47;16.17;;;9.00;;
72924;SDS011;61070;50.794;7.054;2023-03-20T08:24:13;16.25;;;8.52;;
72924;SDS011;61070;50.794;7.054;2023-03-20T08:26:39;18.10;;;8.50;;
72924;SDS011;61070;50.794;7.054;2023-03-20T08:29:04;13.95;;;8.32;;
72924;SDS011;61070;50.794;7.054;2023-03-20T08:31:30;16.30;;;8.15;;
72924;SDS011;61070;50.794;7.054;2023-03-20T08:33:55;12.75;;;7.45;;
72924;SDS011;61070;50.794;7.054;2023-03-20T08:36:21;15.73;;;8.27;;
72924;SDS011;61070;50.794;7.054;2023-03-20T08:38:47;15.25;;;7.85;;
72924;SDS011;61070;50.794;7.054;2023-03-20T08:41:14;15.25;;;7.72;;
72924;SDS011;61070;50.794;7.054;2023-03-20T08:43:40;15.25;;;7.63;;
72924;SDS011;61070;50.794;7.054;2023-03-20T08:46:05;13.75;;;7.30;;
72924;SDS011;61070;50.794;7.054;2023-03-20T08:48:32;12.15;;;6.55;;
72924;SDS011;61070;50.794;7.054;2023-03-20T08:50:57;12.82;;;6.85;;
72924;SDS011;61070;50.794;7.054;2023-03-20T08:53:22;11.30;;;6.43;;
72924;SDS011;61070;50.794;7.054;2023-03-20T08:55:48;10.13;;;6.00;;
72924;SDS011;61070;50.794;7.054;2023-03-20T08:58:14;14.00;;;6.10;;
72924;SDS011;61070;50.794;7.054;2023-03-20T09:00:39;12.10;;;6.18;;
72924;SDS011;61070;50.794;7.054;2023-03-20T09:03:06;13.77;;;6.10;;
72924;SDS011;61070;50.794;7.054;2023-03-20T09:05:31;13.38;;;6.28;;
72924;SDS011;61070;50.794;7.054;2023-03-20T09:07:56;11.15;;;6.28;;
72924;SDS011;61070;50.794;7.054;2023-03-20T09:10:21;10.93;;;5.50;;
72924;SDS011;61070;50.794;7.054;2023-03-20T09:12:47;12.90;;;6.65;;
72924;SDS011;61070;50.794;7.054;2023-03-20T09:15:12;13.18;;;6.22;;
72924;SDS011;61070;50.794;7.054;2023-03-20T09:17:37;11.40;;;5.55;;
72924;SDS011;61070;50.794;7.054;2023-03-20T09:20:03;17.05;;;6.13;;
72924;SDS011;61070;50.794;7.054;2023-03-20T09:22:29;12.57;;;5.70;;
72924;SDS011;61070;50.794;7.054;2023-03-20T09:24:54;12.30;;;6.18;;
72924;SDS011;61070;50.794;7.054;2023-03-20T09:27:20;9.70;;;5.20;;
72924;SDS011;61070;50.794;7.054;2023-03-20T09:29:45;11.32;;;5.28;;
72924;SDS011;61070;50.794;7.054;2023-03-20T09:32:11;13.43;;;4.50;;
72924;SDS011;61070;50.794;7.054;2023-03-20T09:34:37;11.27;;;5.65;;
72924;SDS011;61070;50.794;7.054;2023-03-20T09:37:03;14.57;;;5.97;;
72924;SDS011;61070;50.794;7.054;2023-03-20T09:39:28;10.93;;;5.80;;
72924;SDS011;61070;50.794;7.054;2023-03-20T09:41:54;12.73;;;6.97;;
72924;SDS011;61070;50.794;7.054;2023-03-20T09:47:06;8.98;;;5.18;;
72924;SDS011;61070;50.794;7.054;2023-03-20T09:52:29;13.65;;;5.55;;
72924;SDS011;61070;50.794;7.054;2023-03-20T09:54:58;12.87;;;5.53;;
72924;SDS011;61070;50.794;7.054;2023-03-20T09:57:38;10.40;;;5.15;;
72924;SDS011;61070;50.794;7.054;2023-03-20T10:00:27;10.23;;;6.25;;
72924;SDS011;61070;50.794;7.054;2023-03-20T10:02:59;13.05;;;5.60;;
72924;SDS011;61070;50.794;7.054;2023-03-20T10:05:31;15.88;;;6.32;;
72924;SDS011;61070;50.794;7.054;2023-03-20T10:08:02;12.35;;;5.80;;
72924;SDS011;61070;50.794;7.054;2023-03-20T10:15:47;11.48;;;4.70;;
72924;SDS011;61070;50.794;7.054;2023-03-20T10:18:24;9.60;;;5.45;;
72924;SDS011;61070;50.794;7.054;2023-03-20T10:23:25;16.93;;;5.50;;
72924;SDS011;61070;50.794;7.054;2023-03-20T10:26:18;12.25;;;5.20;;
72924;SDS011;61070;50.794;7.054;2023-03-20T10:28:58;13.68;;;6.25;;
72924;SDS011;61070;50.794;7.054;2023-03-20T10:36:41;10.98;;;5.78;;
72924;SDS011;61070;50.794;7.054;2023-03-20T10:39:28;9.45;;;6.07;;
72924;SDS011;61070;50.794;7.054;2023-03-20T10:42:20;11.15;;;5.07;;
72924;SDS011;61070;50.794;7.054;2023-03-20T10:44:53;11.68;;;5.60;;
72924;SDS011;61070;50.794;7.054;2023-03-20T10:47:22;10.90;;;5.32;;
72924;SDS011;61070;50.794;7.054;2023-03-20T10:49:53;13.70;;;6.72;;
72924;SDS011;61070;50.794;7.054;2023-03-20T10:52:26;14.82;;;5.95;;
72924;SDS011;61070;50.794;7.054;2023-03-20T10:54:59;9.02;;;5.32;;
72924;SDS011;61070;50.794;7.054;2023-03-20T10:57:28;12.85;;;5.50;;
72924;SDS011;61070;50.794;7.054;2023-03-20T10:59:57;10.98;;;5.85;;
72924;SDS011;61070;50.794;7.054;2023-03-20T11:02:32;14.18;;;6.95;;
72924;SDS011;61070;50.794;7.054;2023-03-20T11:04:58;11.30;;;5.63;;
72924;SDS011;61070;50.794;7.054;2023-03-20T11:07:33;13.15;;;6.25;;
72924;SDS011;61070;50.794;7.054;2023-03-20T11:12:32;11.23;;;6.38;;
72924;SDS011;61070;50.794;7.054;2023-03-20T11:18:00;15.52;;;6.93;;
72924;SDS011;61070;50.794;7.054;2023-03-20T11:20:33;16.13;;;6.40;;
72924;SDS011;61070;50.794;7.054;2023-03-20T11:23:04;19.17;;;6.18;;
72924;SDS011;61070;50.794;7.054;2023-03-20T11:25:38;11.90;;;6.53;;
72924;SDS011;61070;50.794;7.054;2023-03-20T11:31:06;10.43;;;4.82;;
72924;SDS011;61070;50.794;7.054;2023-03-20T11:33:38;8.50;;;3.90;;
72924;SDS011;61070;50.794;7.054;2023-03-20T11:36:18;11.00;;;4.27;;
72924;SDS011;61070;50.794;7.054;2023-03-20T11:38:46;9.85;;;4.20;;
72924;SDS011;61070;50.794;7.054;2023-03-20T11:41:18;10.80;;;3.08;;
72924;SDS011;61070;50.794;7.054;2023-03-20T11:43:48;7.97;;;3.50;;
72924;SDS011;61070;50.794;7.054;2023-03-20T11:46:13;6.53;;;3.45;;
72924;SDS011;61070;50.794;7.054;2023-03-20T11:48:40;8.77;;;3.78;;
72924;SDS011;61070;50.794;7.054;2023-03-20T11:51:10;8.40;;;3.30;;
72924;SDS011;61070;50.794;7.054;2023-03-20T11:53:41;9.35;;;3.88;;
72924;SDS011;61070;50.794;7.054;2023-03-20T11:56:29;7.63;;;3.55;;
72924;SDS011;61070;50.794;7.054;2023-03-20T12:01:28;5.30;;;2.97;;
72924;SDS011;61070;50.794;7.054;2023-03-20T12:04:03;6.65;;;2.35;;
72924;SDS011;61070;50.794;7.054;2023-03-20T12:06:38;7.28;;;2.40;;
72924;SDS011;61070;50.794;7.054;2023-03-20T12:09:22;9.15;;;3.08;;
72924;SDS011;61070;50.794;7.054;2023-03-20T12:11:59;4.05;;;1.73;;
72924;SDS011;61070;50.794;7.054;2023-03-20T12:14:31;5.30;;;1.52;;
72924;SDS011;61070;50.794;7.054;2023-03-20T12:17:45;7.57;;;2.05;;
72924;SDS011;61070;50.794;7.054;2023-03-20T12:20:01;4.25;;;1.60;;
72924;SDS011;61070;50.794;7.054;2023-03-20T12:22:37;6.78;;;1.55;;
72924;SDS011;61070;50.794;7.054;2023-03-20T12:25:25;8.00;;;1.70;;
72924;SDS011;61070;50.794;7.054;2023-03-20T12:33:06;7.15;;;1.67;;
72924;SDS011;61070;50.794;7.054;2023-03-20T12:35:40;5.93;;;1.40;;
72924;SDS011;61070;50.794;7.054;2023-03-20T12:38:27;8.77;;;1.67;;
72924;SDS011;61070;50.794;7.054;2023-03-20T12:41:12;11.15;;;1.77;;
72924;SDS011;61070;50.794;7.054;2023-03-20T12:57:20;5.90;;;1.52;;
72924;SDS011;61070;50.794;7.054;2023-03-20T13:00:04;6.00;;;1.38;;
72924;SDS011;61070;50.794;7.054;2023-03-20T13:03:25;5.60;;;1.70;;
72924;SDS011;61070;50.794;7.054;2023-03-20T13:05:24;4.47;;;1.80;;
72924;SDS011;61070;50.794;7.054;2023-03-20T13:07:59;5.70;;;1.70;;
72924;SDS011;61070;50.794;7.054;2023-03-20T13:10:29;7.13;;;1.75;;
72924;SDS011;61070;50.794;7.054;2023-03-20T13:13:13;4.93;;;1.42;;
72924;SDS011;61070;50.794;7.054;2023-03-20T13:18:36;6.82;;;1.40;;
72924;SDS011;61070;50.794;7.054;2023-03-20T13:21:33;6.68;;;1.77;;
72924;SDS011;61070;50.794;7.054;2023-03-20T13:24:08;4.78;;;1.88;;
72924;SDS011;61070;50.794;7.054;2023-03-20T13:26:51;5.35;;;1.55;;
72924;SDS011;61070;50.794;7.054;2023-03-20T13:29:27;8.38;;;1.40;;
72924;SDS011;61070;50.794;7.054;2023-03-20T13:32:12;7.60;;;1.60;;
72924;SDS011;61070;50.794;7.054;2023-03-20T13:37:54;7.38;;;1.58;;
72924;SDS011;61070;50.794;7.054;2023-03-20T13:40:27;8.45;;;1.80;;
72924;SDS011;61070;50.794;7.054;2023-03-20T13:43:12;6.05;;;1.63;;
72924;SDS011;61070;50.794;7.054;2023-03-20T13:45:48;6.63;;;1.55;;
72924;SDS011;61070;50.794;7.054;2023-03-20T13:53:46;7.63;;;1.90;;
72924;SDS011;61070;50.794;7.054;2023-03-20T13:56:27;8.38;;;2.05;;
72924;SDS011;61070;50.794;7.054;2023-03-20T14:02:12;15.88;;;2.10;;
72924;SDS011;61070;50.794;7.054;2023-03-20T14:04:46;6.38;;;2.03;;
72924;SDS011;61070;50.794;7.054;2023-03-20T14:07:26;6.82;;;2.08;;
72924;SDS011;61070;50.794;7.054;2023-03-20T14:09:54;7.53;;;1.88;;
72924;SDS011;61070;50.794;7.054;2023-03-20T14:12:22;7.85;;;1.95;;
72924;SDS011;61070;50.794;7.054;2023-03-20T14:14:56;11.82;;;2.25;;
72924;SDS011;61070;50.794;7.054;2023-03-20T14:17:24;6.90;;;2.05;;
72924;SDS011;61070;50.794;7.054;2023-03-20T14:19:52;8.30;;;2.25;;
72924;SDS011;61070;50.794;7.054;2023-03-20T14:22:19;8.98;;;2.72;;
72924;SDS011;61070;50.794;7.054;2023-03-20T14:24:52;7.00;;;1.90;;
72924;SDS011;61070;50.794;7.054;2023-03-20T14:27:25;7.60;;;2.10;;
72924;SDS011;61070;50.794;7.054;2023-03-20T14:29:53;5.18;;;1.67;;
72924;SDS011;61070;50.794;7.054;2023-03-20T14:42:59;16.25;;;2.10;;
72924;SDS011;61070;50.794;7.054;2023-03-20T14:45:35;14.82;;;2.70;;
72924;SDS011;61070;50.794;7.054;2023-03-20T14:50:31;5.15;;;1.65;;
72924;SDS011;61070;50.794;7.054;2023-03-20T14:58:33;7.05;;;2.25;;
72924;SDS011;61070;50.794;7.054;2023-03-20T15:04:03;13.70;;;3.05;;
72924;SDS011;61070;50.794;7.054;2023-03-20T15:06:44;8.85;;;1.88;;
72924;SDS011;61070;50.794;7.054;2023-03-20T15:09:13;5.40;;;1.70;;
72924;SDS011;61070;50.794;7.054;2023-03-20T15:11:40;6.22;;;1.70;;
72924;SDS011;61070;50.794;7.054;2023-03-20T15:14:07;5.43;;;1.70;;
72924;SDS011;61070;50.794;7.054;2023-03-20T15:16:35;8.05;;;1.88;;
72924;SDS011;61070;50.794;7.054;2023-03-20T15:19:20;8.45;;;1.73;;
72924;SDS011;61070;50.794;7.054;2023-03-20T15:21:45;8.15;;;2.05;;
72924;SDS011;61070;50.794;7.054;2023-03-20T15:24:22;9.38;;;2.53;;
72924;SDS011;61070;50.794;7.054;2023-03-20T15:26:52;8.77;;;1.70;;
72924;SDS011;61070;50.794;7.054;2023-03-20T15:29:19;8.90;;;2.42;;
72924;SDS011;61070;50.794;7.054;2023-03-20T15:31:46;10.90;;;1.58;;
72924;SDS011;61070;50.794;7.054;2023-03-20T15:34:21;5.82;;;1.73;;
72924;SDS011;61070;50.794;7.054;2023-03-20T15:36:52;9.63;;;1.88;;
72924;SDS011;61070;50.794;7.054;2023-03-20T15:39:22;5.43;;;2.27;;
72924;SDS011;61070;50.794;7.054;2023-03-20T15:42:02;7.70;;;2.13;;
72924;SDS011;61070;50.794;7.054;2023-03-20T15:44:36;17.48;;;2.80;;
72924;SDS011;61070;50.794;7.054;2023-03-20T15:47:13;10.77;;;2.40;;
72924;SDS011;61070;50.794;7.054;2023-03-20T15:49:47;9.95;;;2.22;;
72924;SDS011;61070;50.794;7.054;2023-03-20T15:55:10;6.70;;;1.98;;
72924;SDS011;61070;50.794;7.054;2023-03-20T15:57:40;8.15;;;2.60;;
72924;SDS011;61070;50.794;7.054;2023-03-20T16:00:13;9.07;;;2.10;;
72924;SDS011;61070;50.794;7.054;2023-03-20T16:02:43;7.65;;;1.80;;
72924;SDS011;61070;50.794;7.054;2023-03-20T16:05:11;7.82;;;2.05;;
72924;SDS011;61070;50.794;7.054;2023-03-20T16:07:39;8.27;;;1.90;;
72924;SDS011;61070;50.794;7.054;2023-03-20T16:10:15;11.52;;;3.30;;
72924;SDS011;61070;50.794;7.054;2023-03-20T16:12:48;11.70;;;2.17;;
72924;SDS011;61070;50.794;7.054;2023-03-20T16:15:16;11.02;;;2.15;;
72924;SDS011;61070;50.794;7.054;2023-03-20T16:17:44;8.90;;;2.55;;
72924;SDS011;61070;50.794;7.054;2023-03-20T16:20:13;7.57;;;2.60;;
72924;SDS011;61070;50.794;7.054;2023-03-20T16:25:08;11.48;;;2.60;;
72924;SDS011;61070;50.794;7.054;2023-03-20T16:27:38;13.77;;;2.90;;
72924;SDS011;61070;50.794;7.054;2023-03-20T16:30:12;9.75;;;2.70;;
72924;SDS011;61070;50.794;7.054;2023-03-20T16:32:43;7.68;;;2.42;;
72924;SDS011;61070;50.794;7.054;2023-03-20T16:35:21;8.07;;;1.40;;
72924;SDS011;61070;50.794;7.054;2023-03-20T16:37:55;11.40;;;2.45;;
72924;SDS011;61070;50.794;7.054;2023-03-20T16:40:32;7.18;;;1.92;;
72924;SDS011;61070;50.794;7.054;2023-03-20T16:43:09;13.00;;;2.53;;
72924;SDS011;61070;50.794;7.054;2023-03-20T16:45:39;15.75;;;3.33;;
72924;SDS011;61070;50.794;7.054;2023-03-20T16:50:35;10.23;;;3.45;;
72924;SDS011;61070;50.794;7.054;2023-03-20T16:53:02;7.65;;;2.53;;
72924;SDS011;61070;50.794;7.054;2023-03-20T16:55:35;10.63;;;2.33;;
72924;SDS011;61070;50.794;7.054;2023-03-20T16:58:06;6.65;;;1.90;;
72924;SDS011;61070;50.794;7.054;2023-03-20T17:00:40;13.50;;;1.67;;